Time;durP1;ratioP1;P1;durP2;ratioP2;P2;SDS_P1;SDS_P2;PMS_P1;PMS_P2;Temp;Humidity;BMP_temperature;BMP_pressure;BME280_temperature;BME280_humidity;BME280_pressure;Samples;Min_cycle;Max_cycle;Signal;HPM_P1;HPM_P2
2024/03/15 00:00:58;;;;;;;10.07;6.85;;;;;;;;;;5029596;28;20273;-62
2024/03/15 00:03:25;;;;;;;9.95;7.57;;;;;;;;;;5036535;28;20124;-62
2024/03/15 00:05:51;;;;;;;11.27;7.78;;;;;;;;;;5029432;28;20049;-62
2024/03/15 00:08:17;;;;;;;11.55;7.20;;;;;;;;;;5031015;28;20051;-62
2024/03/15 00:10:43;;;;;;;12.07;7.10;;;;;;;;;;5032423;28;20132;-62
2024/03/15 00:13:11;;;;;;;11.40;7.32;;;;;;;;;;5031750;28;20061;-63
2024/03/15 00:15:39;;;;;;;10.80;7.38;;;;;;;;;;5029432;28;20130;-62
2024/03/15 00:18:05;;;;;;;11.50;7.70;;;;;;;;;;5035796;28;20079;-62
2024/03/15 00:20:32;;;;;;;12.70;7.00;;;;;;;;;;5034650;28;20693;-62
2024/03/15 00:22:58;;;;;;;13.35;7.10;;;;;;;;;;5032312;28;20041;-63
2024/03/15 00:25:25;;;;;;;10.70;6.68;;;;;;;;;;5028621;28;20492;-62
2024/03/15 00:27:52;;;;;;;11.70;7.43;;;;;;;;;;5029133;28;20068;-62
2024/03/15 00:30:18;;;;;;;9.68;6.85;;;;;;;;;;5037860;28;20123;-62
2024/03/15 00:32:44;;;;;;;11.98;6.90;;;;;;;;;;5040197;28;20357;-63
2024/03/15 00:35:11;;;;;;;12.77;6.75;;;;;;;;;;5044787;28;20044;-62
2024/03/15 00:37:37;;;;;;;14.23;7.25;;;;;;;;;;5033622;28;20038;-62
2024/03/15 00:40:03;;;;;;;9.68;6.13;;;;;;;;;;5038382;28;20049;-62
2024/03/15 00:42:29;;;;;;;8.77;6.15;;;;;;;;;;5039229;28;20083;-62
2024/03/15 00:44:56;;;;;;;13.50;6.90;;;;;;;;;;5041184;28;20173;-62
2024/03/15 00:47:22;;;;;;;9.73;6.93;;;;;;;;;;5051371;28;20156;-62
2024/03/15 00:49:48;;;;;;;13.85;6.70;;;;;;;;;;5038816;28;20044;-62
2024/03/15 00:52:14;;;;;;;10.93;6.30;;;;;;;;;;5037352;28;20106;-62
2024/03/15 00:54:40;;;;;;;10.85;7.00;;;;;;;;;;5027945;28;20672;-62
2024/03/15 00:57:07;;;;;;;10.85;7.30;;;;;;;;;;5030236;28;20041;-62
2024/03/15 00:59:34;;;;;;;10.13;6.88;;;;;;;;;;5032317;28;20048;-62
2024/03/15 01:02:00;;;;;;;11.52;6.30;;;;;;;;;;5035486;28;20482;-62
2024/03/15 01:04:27;;;;;;;11.43;7.32;;;;;;;;;;5037449;28;20049;-62
2024/03/15 01:06:54;;;;;;;10.32;6.82;;;;;;;;;;5041624;28;20041;-62
2024/03/15 01:09:20;;;;;;;15.68;7.82;;;;;;;;;;5042467;28;20082;-63
2024/03/15 01:11:47;;;;;;;10.35;6.28;;;;;;;;;;5017107;28;20127;-63
2024/03/15 01:14:14;;;;;;;12.57;7.43;;;;;;;;;;5033350;28;20509;-62
2024/03/15 01:16:45;;;;;;;16.75;7.72;;;;;;;;;;5032261;28;20060;-62
2024/03/15 01:19:12;;;;;;;13.70;7.60;;;;;;;;;;5037123;28;20429;-62
2024/03/15 01:21:38;;;;;;;10.07;7.60;;;;;;;;;;5039895;28;20131;-62
2024/03/15 01:24:04;;;;;;;11.15;7.90;;;;;;;;;;5034156;28;20722;-62
2024/03/15 01:26:30;;;;;;;16.58;7.75;;;;;;;;;;5041371;28;20032;-62
2024/03/15 01:28:57;;;;;;;14.95;7.60;;;;;;;;;;5028947;28;20056;-62
2024/03/15 01:31:23;;;;;;;12.40;7.53;;;;;;;;;;5030849;28;20500;-62
2024/03/15 01:33:49;;;;;;;12.10;7.82;;;;;;;;;;5030100;28;20063;-62
2024/03/15 01:36:15;;;;;;;13.50;7.60;;;;;;;;;;5030294;28;20044;-62
2024/03/15 01:38:41;;;;;;;14.00;8.02;;;;;;;;;;5029964;28;20374;-62
2024/03/15 01:41:07;;;;;;;14.15;8.70;;;;;;;;;;5030593;28;20048;-62
2024/03/15 01:43:34;;;;;;;13.15;8.52;;;;;;;;;;5032136;28;20365;-62
2024/03/15 01:46:00;;;;;;;10.98;8.30;;;;;;;;;;5030837;28;20041;-62
2024/03/15 01:48:26;;;;;;;12.60;8.57;;;;;;;;;;5028027;28;20563;-62
2024/03/15 01:50:53;;;;;;;14.23;8.43;;;;;;;;;;5030568;28;20439;-62
2024/03/15 01:53:20;;;;;;;14.45;8.45;;;;;;;;;;5030050;28;20119;-62
2024/03/15 01:55:46;;;;;;;12.57;8.52;;;;;;;;;;5037995;28;20454;-62
2024/03/15 01:58:14;;;;;;;11.77;8.18;;;;;;;;;;5030603;28;20060;-62
2024/03/15 02:00:41;;;;;;;15.88;8.85;;;;;;;;;;5026167;28;20133;-62
2024/03/15 02:03:08;;;;;;;14.88;8.07;;;;;;;;;;5031500;28;20045;-62
2024/03/15 02:05:35;;;;;;;13.45;7.97;;;;;;;;;;5029162;28;20049;-62
2024/03/15 02:08:01;;;;;;;13.40;8.30;;;;;;;;;;5027337;28;20053;-62
2024/03/15 02:10:27;;;;;;;12.57;8.32;;;;;;;;;;5035989;28;20036;-62
2024/03/15 02:12:53;;;;;;;13.90;8.10;;;;;;;;;;5027297;28;20641;-62
2024/03/15 02:15:20;;;;;;;15.20;8.70;;;;;;;;;;5027559;28;20060;-62
2024/03/15 02:17:47;;;;;;;15.93;8.90;;;;;;;;;;5012964;28;20053;-62
2024/03/15 02:20:15;;;;;;;29.35;10.30;;;;;;;;;;5037185;28;20041;-62
2024/03/15 02:22:42;;;;;;;12.32;8.98;;;;;;;;;;5034809;28;20142;-62
2024/03/15 02:25:08;;;;;;;15.80;9.40;;;;;;;;;;5031888;28;20503;-62
2024/03/15 02:27:34;;;;;;;14.57;9.07;;;;;;;;;;5025737;28;20107;-62
2024/03/15 02:30:01;;;;;;;13.10;8.18;;;;;;;;;;5029421;28;20452;-62
2024/03/15 02:32:27;;;;;;;13.43;9.13;;;;;;;;;;5024243;28;20927;-62
2024/03/15 02:34:54;;;;;;;15.88;9.90;;;;;;;;;;5014294;28;20056;-62
2024/03/15 02:37:20;;;;;;;13.88;9.88;;;;;;;;;;5024934;28;20043;-62
2024/03/15 02:39:46;;;;;;;15.25;9.38;;;;;;;;;;5034268;28;20190;-62
2024/03/15 02:42:12;;;;;;;15.05;9.93;;;;;;;;;;5033615;28;20087;-63
2024/03/15 02:44:39;;;;;;;16.38;9.65;;;;;;;;;;5032398;28;20159;-62
2024/03/15 02:47:06;;;;;;;16.25;9.15;;;;;;;;;;5032106;28;20074;-62
2024/03/15 02:49:32;;;;;;;18.33;10.23;;;;;;;;;;5028740;28;20111;-62
2024/03/15 02:51:58;;;;;;;14.65;10.13;;;;;;;;;;5026913;28;20072;-62
2024/03/15 02:54:25;;;;;;;14.27;9.10;;;;;;;;;;5026536;28;20044;-62
2024/03/15 02:56:51;;;;;;;14.48;9.75;;;;;;;;;;5025707;28;20049;-62
2024/03/15 02:59:19;;;;;;;15.85;9.88;;;;;;;;;;5037576;28;20041;-62
2024/03/15 03:01:46;;;;;;;17.38;10.52;;;;;;;;;;5031258;28;20042;-62
2024/03/15 03:04:13;;;;;;;15.43;9.50;;;;;;;;;;5034771;28;20049;-62
2024/03/15 03:06:41;;;;;;;13.98;9.60;;;;;;;;;;5033054;28;20045;-62
2024/03/15 03:09:07;;;;;;;15.88;9.98;;;;;;;;;;5025982;28;20578;-62
2024/03/15 03:11:33;;;;;;;17.02;9.93;;;;;;;;;;5033708;28;20464;-62
2024/03/15 03:13:59;;;;;;;18.05;10.43;;;;;;;;;;5036316;28;20041;-62
2024/03/15 03:16:26;;;;;;;14.75;9.80;;;;;;;;;;5034351;28;20056;-62
2024/03/15 03:18:53;;;;;;;14.52;10.02;;;;;;;;;;5037110;28;20037;-62
2024/03/15 03:21:19;;;;;;;14.82;10.38;;;;;;;;;;5041032;28;20084;-62
2024/03/15 03:23:46;;;;;;;17.95;11.52;;;;;;;;;;5044223;28;20056;-62
2024/03/15 03:26:12;;;;;;;18.45;11.70;;;;;;;;;;5043414;28;20061;-62
2024/03/15 03:28:39;;;;;;;17.30;11.55;;;;;;;;;;5044031;28;20536;-62
2024/03/15 03:31:05;;;;;;;16.92;11.50;;;;;;;;;;5043522;28;20045;-62
2024/03/15 03:33:32;;;;;;;17.58;12.50;;;;;;;;;;5039501;28;20064;-62
2024/03/15 03:35:58;;;;;;;17.38;12.00;;;;;;;;;;5034204;28;20080;-62
2024/03/15 03:38:24;;;;;;;16.80;13.20;;;;;;;;;;5039211;28;20041;-62
2024/03/15 03:40:50;;;;;;;20.88;13.55;;;;;;;;;;5037597;28;20503;-62
2024/03/15 03:43:17;;;;;;;21.27;13.30;;;;;;;;;;5043233;28;20048;-62
2024/03/15 03:45:46;;;;;;;22.27;14.88;;;;;;;;;;5039476;28;20057;-62
2024/03/15 03:48:14;;;;;;;21.95;14.02;;;;;;;;;;5040071;28;20382;-62
2024/03/15 03:50:42;;;;;;;21.50;14.18;;;;;;;;;;5039722;28;20362;-62
2024/03/15 03:53:09;;;;;;;19.73;12.95;;;;;;;;;;5034351;28;20075;-62
2024/03/15 03:55:40;;;;;;;22.50;13.43;;;;;;;;;;5039164;28;20045;-62
2024/03/15 03:58:07;;;;;;;20.65;13.95;;;;;;;;;;5032553;28;20037;-62
2024/03/15 04:00:34;;;;;;;22.65;14.00;;;;;;;;;;5036615;28;20037;-62
2024/03/15 04:03:03;;;;;;;21.63;13.45;;;;;;;;;;5040485;28;20068;-62
2024/03/15 04:05:30;;;;;;;23.50;13.30;;;;;;;;;;5037213;28;20088;-62
2024/03/15 04:07:56;;;;;;;19.27;12.15;;;;;;;;;;5041185;28;20388;-62
2024/03/15 04:10:23;;;;;;;19.52;12.60;;;;;;;;;;5044067;28;20047;-62
2024/03/15 04:12:50;;;;;;;21.52;12.88;;;;;;;;;;5040088;28;20049;-62
2024/03/15 04:15:17;;;;;;;20.58;13.15;;;;;;;;;;5035624;28;20540;-62
2024/03/15 04:17:44;;;;;;;21.65;12.10;;;;;;;;;;5039856;28;20049;-63
2024/03/15 04:20:16;;;;;;;21.17;11.88;;;;;;;;;;5033480;28;20037;-62
2024/03/15 04:22:43;;;;;;;17.33;11.63;;;;;;;;;;5033652;28;20076;-62
2024/03/15 04:25:10;;;;;;;18.25;11.45;;;;;;;;;;5031213;28;20048;-62
2024/03/15 04:27:36;;;;;;;17.85;10.07;;;;;;;;;;5039654;28;20458;-62
2024/03/15 04:30:21;;;;;;;17.33;12.02;;;;;;;;;;5038760;28;20053;-62
2024/03/15 04:32:49;;;;;;;22.48;11.27;;;;;;;;;;5034779;28;20136;-62
2024/03/15 04:35:16;;;;;;;19.42;11.30;;;;;;;;;;5032132;28;20126;-63
2024/03/15 04:37:43;;;;;;;18.00;10.95;;;;;;;;;;5031258;28;20048;-62
2024/03/15 04:40:10;;;;;;;19.67;11.68;;;;;;;;;;5030355;28;20056;-62
2024/03/15 04:42:36;;;;;;;19.52;10.90;;;;;;;;;;5032113;28;20450;-62
2024/03/15 04:45:08;;;;;;;17.10;11.48;;;;;;;;;;5034737;28;20517;-62
2024/03/15 04:47:37;;;;;;;22.73;13.65;;;;;;;;;;5033684;28;20033;-62
2024/03/15 04:50:04;;;;;;;18.17;12.80;;;;;;;;;;5033719;28;20194;-62
2024/03/15 04:52:30;;;;;;;18.92;14.00;;;;;;;;;;5040247;28;20333;-62
2024/03/15 04:54:56;;;;;;;24.15;14.00;;;;;;;;;;5033732;28;20041;-62
2024/03/15 04:57:25;;;;;;;23.88;15.75;;;;;;;;;;5030002;28;20038;-62
2024/03/15 04:59:52;;;;;;;24.00;14.75;;;;;;;;;;5034662;28;20056;-62
2024/03/15 05:02:19;;;;;;;19.25;14.63;;;;;;;;;;5037529;28;20042;-62
2024/03/15 05:04:46;;;;;;;28.08;15.60;;;;;;;;;;5038882;28;20045;-62
2024/03/15 05:07:12;;;;;;;22.38;15.70;;;;;;;;;;5031731;28;20045;-62
2024/03/15 05:09:38;;;;;;;22.90;14.73;;;;;;;;;;5029290;28;20485;-62
2024/03/15 05:12:05;;;;;;;22.30;15.48;;;;;;;;;;5030699;28;20045;-62
2024/03/15 05:14:31;;;;;;;24.92;16.00;;;;;;;;;;5029789;28;20240;-63
2024/03/15 05:16:57;;;;;;;22.38;15.52;;;;;;;;;;5032526;28;20393;-63
2024/03/15 05:19:23;;;;;;;21.85;15.55;;;;;;;;;;5031743;28;20456;-62
2024/03/15 05:21:50;;;;;;;23.45;14.95;;;;;;;;;;5030030;28;20067;-63
2024/03/15 05:24:16;;;;;;;24.35;15.35;;;;;;;;;;5030589;28;20076;-62
2024/03/15 05:26:42;;;;;;;24.20;15.18;;;;;;;;;;5011725;28;20122;-62
2024/03/15 05:29:09;;;;;;;23.88;15.50;;;;;;;;;;5033911;28;20321;-62
2024/03/15 05:31:35;;;;;;;23.38;15.80;;;;;;;;;;5042211;28;20184;-62
2024/03/15 05:34:06;;;;;;;24.48;16.10;;;;;;;;;;5036139;28;20059;-62
2024/03/15 05:36:33;;;;;;;24.08;15.20;;;;;;;;;;5031791;28;20059;-62
2024/03/15 05:39:00;;;;;;;24.42;15.80;;;;;;;;;;5045772;28;20586;-62
2024/03/15 05:41:26;;;;;;;22.75;15.85;;;;;;;;;;5027831;28;20063;-62
2024/03/15 05:43:52;;;;;;;24.70;15.95;;;;;;;;;;5027473;28;20041;-62
2024/03/15 05:46:19;;;;;;;22.13;15.43;;;;;;;;;;5035445;28;20135;-62
2024/03/15 05:48:45;;;;;;;24.35;15.30;;;;;;;;;;5032167;28;20056;-62
2024/03/15 05:51:11;;;;;;;26.00;16.35;;;;;;;;;;5027418;28;20412;-62
2024/03/15 05:53:37;;;;;;;27.38;16.08;;;;;;;;;;5026312;28;20076;-62
2024/03/15 05:56:04;;;;;;;25.13;16.50;;;;;;;;;;5030666;28;20041;-62
2024/03/15 05:58:30;;;;;;;27.75;16.92;;;;;;;;;;5026199;28;20053;-63
2024/03/15 06:00:56;;;;;;;25.50;16.83;;;;;;;;;;5028563;28;20063;-62
2024/03/15 06:03:22;;;;;;;23.83;16.80;;;;;;;;;;5031658;28;20120;-62
2024/03/15 06:05:50;;;;;;;25.90;16.98;;;;;;;;;;5028770;28;20056;-63
2024/03/15 06:08:16;;;;;;;28.58;17.88;;;;;;;;;;5030274;28;20166;-63
2024/03/15 06:10:43;;;;;;;27.45;17.98;;;;;;;;;;5048484;28;20154;-63
2024/03/15 06:13:09;;;;;;;28.80;18.20;;;;;;;;;;5029788;28;20048;-62
2024/03/15 06:15:37;;;;;;;24.48;17.15;;;;;;;;;;5031933;28;21494;-62
2024/03/15 06:18:04;;;;;;;33.30;17.95;;;;;;;;;;5034814;28;20080;-62
2024/03/15 06:20:31;;;;;;;26.65;16.55;;;;;;;;;;5029431;28;20050;-62
2024/03/15 06:22:57;;;;;;;25.40;16.23;;;;;;;;;;5035999;28;20070;-62
2024/03/15 06:25:25;;;;;;;27.80;16.55;;;;;;;;;;5035680;28;20170;-62
2024/03/15 06:27:52;;;;;;;29.80;17.00;;;;;;;;;;5035356;28;20075;-62
2024/03/15 06:30:18;;;;;;;27.98;17.42;;;;;;;;;;5031223;28;20037;-62
2024/03/15 06:32:45;;;;;;;28.45;17.20;;;;;;;;;;5036339;28;20052;-62
2024/03/15 06:35:26;;;;;;;26.50;17.08;;;;;;;;;;5032391;28;20673;-62
2024/03/15 06:38:06;;;;;;;28.23;17.85;;;;;;;;;;5032295;28;20041;-62
2024/03/15 06:40:45;;;;;;;28.58;18.20;;;;;;;;;;5040900;28;20138;-62
2024/03/15 06:43:35;;;;;;;31.83;18.27;;;;;;;;;;5030722;28;20102;-62
2024/03/15 06:46:08;;;;;;;24.40;18.65;;;;;;;;;;5039545;28;20041;-62
2024/03/15 06:48:44;;;;;;;29.05;17.88;;;;;;;;;;5027181;28;20215;-62
2024/03/15 06:53:56;;;;;;;29.50;16.95;;;;;;;;;;5029155;28;20048;-62
2024/03/15 06:56:23;;;;;;;30.80;17.83;;;;;;;;;;5033141;28;20055;-62
2024/03/15 06:58:49;;;;;;;22.63;17.50;;;;;;;;;;5031210;28;20045;-62
2024/03/15 07:01:15;;;;;;;22.98;17.55;;;;;;;;;;5032405;28;20615;-62
2024/03/15 07:03:43;;;;;;;28.98;16.50;;;;;;;;;;5024540;28;20076;-62
2024/03/15 07:06:10;;;;;;;29.65;15.80;;;;;;;;;;5036702;28;20140;-62
2024/03/15 07:08:37;;;;;;;24.02;14.95;;;;;;;;;;5041470;28;20116;-62
2024/03/15 07:11:04;;;;;;;24.30;15.90;;;;;;;;;;5035131;28;20111;-62
2024/03/15 07:13:31;;;;;;;28.77;16.52;;;;;;;;;;5027732;28;20143;-62
2024/03/15 07:15:57;;;;;;;28.02;16.23;;;;;;;;;;5033702;28;20481;-62
2024/03/15 07:18:23;;;;;;;28.02;15.32;;;;;;;;;;5045513;28;20068;-62
2024/03/15 07:20:50;;;;;;;27.73;16.38;;;;;;;;;;5043195;28;20037;-62
2024/03/15 07:23:16;;;;;;;27.20;17.52;;;;;;;;;;5041283;28;20044;-62
2024/03/15 07:25:43;;;;;;;31.33;17.85;;;;;;;;;;5041083;28;21195;-63
2024/03/15 07:28:09;;;;;;;26.15;17.25;;;;;;;;;;5054745;28;20121;-64
2024/03/15 07:30:35;;;;;;;25.48;17.27;;;;;;;;;;5046975;28;20133;-63
2024/03/15 07:33:01;;;;;;;30.45;18.40;;;;;;;;;;5036600;28;20087;-63
2024/03/15 07:35:27;;;;;;;32.92;19.20;;;;;;;;;;5047216;28;20052;-64
2024/03/15 07:37:54;;;;;;;29.75;18.52;;;;;;;;;;5045300;28;20041;-63
2024/03/15 07:40:20;;;;;;;28.90;18.80;;;;;;;;;;5048235;28;20489;-63
2024/03/15 07:42:47;;;;;;;27.48;18.15;;;;;;;;;;5050302;28;20041;-63
2024/03/15 07:45:13;;;;;;;28.02;19.73;;;;;;;;;;5048482;28;20140;-63
2024/03/15 07:47:40;;;;;;;27.60;17.90;;;;;;;;;;5049277;28;20048;-63
2024/03/15 07:50:08;;;;;;;24.73;18.52;;;;;;;;;;5046374;28;20164;-63
2024/03/15 07:52:35;;;;;;;31.80;20.38;;;;;;;;;;5038351;28;20072;-63
2024/03/15 07:55:03;;;;;;;32.95;19.55;;;;;;;;;;5039898;28;20489;-63
2024/03/15 07:57:29;;;;;;;25.27;18.17;;;;;;;;;;5038998;28;20131;-63
2024/03/15 07:59:56;;;;;;;38.75;18.50;;;;;;;;;;5040446;28;20107;-63
2024/03/15 08:02:24;;;;;;;25.27;15.90;;;;;;;;;;5039494;28;20131;-63
2024/03/15 08:04:50;;;;;;;26.35;16.58;;;;;;;;;;5033486;28;20067;-63
2024/03/15 08:07:18;;;;;;;24.85;16.63;;;;;;;;;;5037437;28;20064;-65
2024/03/15 08:09:45;;;;;;;23.42;14.55;;;;;;;;;;5039420;28;20068;-65
2024/03/15 08:12:14;;;;;;;21.23;13.80;;;;;;;;;;5030256;28;20128;-64
2024/03/15 08:14:41;;;;;;;27.42;13.88;;;;;;;;;;5046240;28;20182;-64
2024/03/15 08:17:07;;;;;;;20.92;14.45;;;;;;;;;;5046783;28;20049;-64
2024/03/15 08:19:33;;;;;;;22.77;13.73;;;;;;;;;;5044456;28;20175;-64
2024/03/15 08:22:01;;;;;;;24.38;14.90;;;;;;;;;;5035774;28;20150;-64
2024/03/15 08:24:27;;;;;;;20.02;13.50;;;;;;;;;;5041839;28;20060;-65
2024/03/15 08:26:54;;;;;;;23.08;13.95;;;;;;;;;;5044343;28;20480;-65
2024/03/15 08:29:21;;;;;;;26.67;14.13;;;;;;;;;;5038196;28;20131;-65
2024/03/15 08:31:47;;;;;;;22.85;13.10;;;;;;;;;;5041178;28;20053;-69
2024/03/15 08:34:14;;;;;;;20.10;12.75;;;;;;;;;;5060481;28;20033;-64
2024/03/15 08:36:41;;;;;;;20.63;13.20;;;;;;;;;;5047304;28;20045;-65
2024/03/15 08:39:15;;;;;;;19.98;12.98;;;;;;;;;;5046249;28;20123;-64
2024/03/15 08:41:47;;;;;;;22.33;13.73;;;;;;;;;;5044808;28;20128;-65
2024/03/15 08:44:13;;;;;;;21.17;12.98;;;;;;;;;;5046729;28;20041;-65
2024/03/15 08:46:39;;;;;;;23.83;13.50;;;;;;;;;;5047525;28;20077;-65
2024/03/15 08:49:05;;;;;;;21.90;13.13;;;;;;;;;;5046648;28;20041;-65
2024/03/15 08:51:32;;;;;;;19.55;12.18;;;;;;;;;;5045377;28;20548;-65
2024/03/15 08:53:59;;;;;;;19.48;11.93;;;;;;;;;;5047875;28;20037;-65
2024/03/15 08:56:26;;;;;;;18.95;12.05;;;;;;;;;;5048071;28;20063;-64
2024/03/15 08:58:53;;;;;;;19.70;12.18;;;;;;;;;;5042705;28;20076;-64
2024/03/15 09:01:21;;;;;;;26.48;12.57;;;;;;;;;;5042281;28;20052;-65
2024/03/15 09:03:47;;;;;;;24.17;13.57;;;;;;;;;;5047554;28;20132;-65
2024/03/15 09:06:14;;;;;;;23.02;11.57;;;;;;;;;;5048212;28;20468;-65
2024/03/15 09:08:41;;;;;;;17.48;11.25;;;;;;;;;;5049370;28;20127;-64
2024/03/15 09:11:08;;;;;;;19.95;11.10;;;;;;;;;;5046297;28;20049;-65
2024/03/15 09:13:34;;;;;;;25.67;10.57;;;;;;;;;;5043373;28;20538;-65
2024/03/15 09:16:02;;;;;;;19.10;9.93;;;;;;;;;;5047125;28;20468;-65
2024/03/15 09:18:28;;;;;;;25.67;11.15;;;;;;;;;;5048050;28;21698;-65
2024/03/15 09:20:55;;;;;;;22.15;10.30;;;;;;;;;;5032707;28;20499;-65
2024/03/15 09:23:21;;;;;;;15.00;9.25;;;;;;;;;;5057220;28;20443;-65
2024/03/15 09:25:48;;;;;;;16.63;8.70;;;;;;;;;;5059698;28;20041;-65
2024/03/15 09:28:14;;;;;;;16.92;9.38;;;;;;;;;;5053740;28;20167;-63
2024/03/15 09:30:49;;;;;;;21.67;8.98;;;;;;;;;;5050841;28;20060;-63
2024/03/15 09:33:16;;;;;;;20.25;9.45;;;;;;;;;;5047663;28;20094;-66
2024/03/15 09:35:46;;;;;;;24.27;8.73;;;;;;;;;;5052395;28;20060;-65
2024/03/15 09:38:12;;;;;;;16.02;7.75;;;;;;;;;;5038115;28;20493;-66
2024/03/15 09:40:39;;;;;;;27.10;8.52;;;;;;;;;;5051277;28;20066;-66
2024/03/15 09:43:05;;;;;;;21.92;7.22;;;;;;;;;;5062337;28;20037;-66
2024/03/15 09:45:31;;;;;;;19.23;8.02;;;;;;;;;;5055913;28;20469;-66
2024/03/15 09:47:59;;;;;;;16.80;5.88;;;;;;;;;;5047266;28;20049;-66
2024/03/15 09:50:29;;;;;;;22.20;6.68;;;;;;;;;;5047937;28;20076;-66
2024/03/15 09:52:56;;;;;;;19.98;5.90;;;;;;;;;;5029829;28;20036;-66
2024/03/15 09:55:22;;;;;;;20.13;5.85;;;;;;;;;;5044335;28;20135;-66
2024/03/15 09:57:49;;;;;;;18.20;5.35;;;;;;;;;;5047537;28;20459;-66
2024/03/15 10:00:17;;;;;;;18.05;4.85;;;;;;;;;;5044325;28;20045;-66
2024/03/15 10:02:45;;;;;;;18.00;5.40;;;;;;;;;;5045525;28;20505;-66
2024/03/15 10:05:12;;;;;;;19.00;4.95;;;;;;;;;;5046057;28;20051;-66
2024/03/15 10:07:38;;;;;;;18.65;5.13;;;;;;;;;;5041676;28;20461;-66
2024/03/15 10:10:05;;;;;;;19.33;4.63;;;;;;;;;;5042839;28;20071;-66
2024/03/15 10:12:33;;;;;;;14.05;3.90;;;;;;;;;;5044894;28;20127;-65
2024/03/15 10:15:00;;;;;;;18.40;3.85;;;;;;;;;;5051811;28;20402;-66
2024/03/15 10:17:26;;;;;;;17.13;4.30;;;;;;;;;;5050684;28;20037;-66
2024/03/15 10:19:52;;;;;;;17.35;3.58;;;;;;;;;;5048494;28;20044;-66
2024/03/15 10:22:18;;;;;;;15.93;4.88;;;;;;;;;;5046316;28;20076;-66
2024/03/15 10:24:45;;;;;;;20.60;4.15;;;;;;;;;;5043934;28;20389;-66
2024/03/15 10:27:13;;;;;;;17.77;3.75;;;;;;;;;;5041417;28;20049;-65
2024/03/15 10:29:39;;;;;;;17.55;3.53;;;;;;;;;;5027009;28;20087;-66
2024/03/15 10:32:10;;;;;;;14.18;2.90;;;;;;;;;;5044711;28;20103;-66
2024/03/15 10:34:38;;;;;;;20.83;3.72;;;;;;;;;;5042435;28;20033;-66
2024/03/15 10:37:09;;;;;;;16.27;3.42;;;;;;;;;;5042988;28;20374;-65
2024/03/15 10:39:35;;;;;;;16.42;3.30;;;;;;;;;;5047386;28;20044;-66
2024/03/15 10:42:02;;;;;;;16.92;3.40;;;;;;;;;;5034008;28;20048;-67
2024/03/15 10:44:28;;;;;;;15.25;4.28;;;;;;;;;;5046951;28;20541;-76
2024/03/15 10:46:55;;;;;;;17.20;4.03;;;;;;;;;;5049744;28;20087;-66
2024/03/15 10:49:23;;;;;;;18.65;4.45;;;;;;;;;;5051808;28;20072;-66
2024/03/15 10:51:50;;;;;;;17.42;4.88;;;;;;;;;;5044246;28;20045;-66
2024/03/15 10:54:19;;;;;;;17.13;4.32;;;;;;;;;;5054161;28;20048;-66
2024/03/15 10:56:47;;;;;;;16.08;3.45;;;;;;;;;;5061432;28;20140;-66
2024/03/15 10:59:13;;;;;;;22.08;3.78;;;;;;;;;;5056343;28;20040;-66
2024/03/15 11:01:41;;;;;;;16.90;4.30;;;;;;;;;;5059714;28;20076;-66
2024/03/15 11:04:12;;;;;;;22.05;5.10;;;;;;;;;;5044001;28;20048;-66
2024/03/15 11:06:41;;;;;;;25.50;5.53;;;;;;;;;;5060847;28;20055;-66
2024/03/15 11:09:13;;;;;;;20.50;4.32;;;;;;;;;;5057696;28;20052;-66
2024/03/15 11:11:39;;;;;;;20.98;5.40;;;;;;;;;;5046303;28;20103;-66
2024/03/15 11:14:14;;;;;;;19.38;4.05;;;;;;;;;;5043508;28;20055;-66
2024/03/15 11:16:41;;;;;;;16.65;3.28;;;;;;;;;;5050592;28;20049;-66
2024/03/15 11:19:07;;;;;;;23.60;5.05;;;;;;;;;;5049770;28;20033;-66
2024/03/15 11:21:33;;;;;;;21.00;5.05;;;;;;;;;;5052963;28;20115;-66
2024/03/15 11:24:07;;;;;;;26.92;6.93;;;;;;;;;;5054137;28;20053;-66
2024/03/15 11:26:33;;;;;;;25.65;5.20;;;;;;;;;;5052876;28;20036;-66
2024/03/15 11:29:00;;;;;;;22.90;5.75;;;;;;;;;;5046705;28;20057;-66
2024/03/15 11:31:28;;;;;;;22.27;5.80;;;;;;;;;;5042546;28;20061;-66
2024/03/15 11:33:55;;;;;;;23.48;7.25;;;;;;;;;;5053202;28;20112;-65
2024/03/15 11:36:22;;;;;;;34.00;7.30;;;;;;;;;;5045164;28;20107;-65
2024/03/15 11:38:50;;;;;;;28.15;8.05;;;;;;;;;;5035307;28;20077;-65
2024/03/15 11:41:17;;;;;;;21.45;6.28;;;;;;;;;;5039148;28;20370;-65
2024/03/15 11:43:43;;;;;;;23.90;6.72;;;;;;;;;;5043719;28;20049;-65
2024/03/15 11:46:10;;;;;;;19.63;6.93;;;;;;;;;;5041107;28;20055;-65
2024/03/15 11:48:36;;;;;;;24.23;7.15;;;;;;;;;;5043673;28;20115;-65
2024/03/15 11:51:02;;;;;;;20.63;7.70;;;;;;;;;;5044101;28;20077;-65
2024/03/15 11:53:29;;;;;;;23.75;7.25;;;;;;;;;;5044806;28;20051;-65
2024/03/15 11:55:57;;;;;;;16.38;6.32;;;;;;;;;;5039953;28;20045;-65
2024/03/15 11:58:24;;;;;;;19.15;6.68;;;;;;;;;;5047367;28;20480;-65
2024/03/15 12:00:52;;;;;;;24.25;6.53;;;;;;;;;;5045078;28;20106;-65
2024/03/15 12:03:20;;;;;;;19.67;5.18;;;;;;;;;;5041354;28;20092;-66
2024/03/15 12:05:46;;;;;;;14.00;4.72;;;;;;;;;;5041973;28;20102;-65
2024/03/15 12:08:14;;;;;;;16.58;4.40;;;;;;;;;;5039810;28;20059;-66
2024/03/15 12:10:41;;;;;;;12.45;3.60;;;;;;;;;;5041855;28;20042;-66
2024/03/15 12:13:15;;;;;;;20.48;4.50;;;;;;;;;;5043344;28;20508;-65
2024/03/15 12:15:42;;;;;;;14.73;3.70;;;;;;;;;;5039915;28;20041;-66
2024/03/15 12:18:13;;;;;;;16.45;5.25;;;;;;;;;;5041484;28;20045;-66
2024/03/15 12:20:39;;;;;;;18.65;4.97;;;;;;;;;;5044877;28;20053;-66
2024/03/15 12:23:07;;;;;;;14.82;5.53;;;;;;;;;;5045974;28;20488;-65
2024/03/15 12:25:33;;;;;;;21.58;7.05;;;;;;;;;;5049425;28;20051;-65
2024/03/15 12:27:59;;;;;;;12.93;5.40;;;;;;;;;;5047975;28;20120;-66
2024/03/15 12:30:26;;;;;;;21.00;6.13;;;;;;;;;;5043886;28;20488;-65
2024/03/15 12:32:52;;;;;;;18.13;6.13;;;;;;;;;;5047557;28;20047;-66
2024/03/15 12:35:18;;;;;;;13.43;5.10;;;;;;;;;;5046237;28;21933;-66
2024/03/15 12:37:45;;;;;;;14.88;5.35;;;;;;;;;;5047071;28;20385;-66
2024/03/15 12:40:19;;;;;;;16.52;5.57;;;;;;;;;;5048762;28;20044;-66
2024/03/15 12:42:45;;;;;;;19.70;5.43;;;;;;;;;;5048310;28;20087;-66
2024/03/15 12:45:12;;;;;;;13.20;4.35;;;;;;;;;;5047688;28;20049;-65
2024/03/15 12:47:41;;;;;;;15.80;4.95;;;;;;;;;;5049042;28;20154;-66
2024/03/15 12:50:17;;;;;;;22.88;6.40;;;;;;;;;;5045536;28;20051;-65
2024/03/15 12:52:43;;;;;;;17.45;4.60;;;;;;;;;;5047684;28;20338;-66
2024/03/15 12:55:14;;;;;;;14.10;3.90;;;;;;;;;;5046649;28;20389;-66
2024/03/15 12:57:41;;;;;;;12.75;4.13;;;;;;;;;;5044304;28;20101;-65
2024/03/15 13:00:13;;;;;;;15.23;3.92;;;;;;;;;;5046376;28;20397;-65
2024/03/15 13:02:39;;;;;;;14.65;3.78;;;;;;;;;;5049727;28;20048;-65
2024/03/15 13:05:08;;;;;;;11.43;3.47;;;;;;;;;;5046381;28;20179;-66
2024/03/15 13:07:35;;;;;;;15.77;3.88;;;;;;;;;;5049235;28;20077;-65
2024/03/15 13:10:01;;;;;;;12.50;4.47;;;;;;;;;;5049668;28;20833;-65
2024/03/15 13:12:28;;;;;;;11.93;4.05;;;;;;;;;;5047822;28;20041;-66
2024/03/15 13:14:55;;;;;;;15.77;3.47;;;;;;;;;;5044146;28;20112;-67
2024/03/15 13:17:22;;;;;;;14.48;4.38;;;;;;;;;;5045176;28;20060;-66
2024/03/15 13:19:48;;;;;;;12.55;2.95;;;;;;;;;;5048157;28;20484;-66
2024/03/15 13:22:15;;;;;;;16.10;4.57;;;;;;;;;;5045098;28;20084;-65
2024/03/15 13:24:41;;;;;;;17.08;3.38;;;;;;;;;;5041781;28;20136;-65
2024/03/15 13:27:11;;;;;;;11.20;2.72;;;;;;;;;;5041346;28;20048;-66
2024/03/15 13:29:37;;;;;;;11.43;3.13;;;;;;;;;;5039012;28;20061;-65
2024/03/15 13:32:04;;;;;;;15.05;3.65;;;;;;;;;;5040850;28;20466;-66
2024/03/15 13:34:30;;;;;;;14.63;3.30;;;;;;;;;;5041526;28;20404;-65
2024/03/15 13:36:56;;;;;;;14.15;2.80;;;;;;;;;;5039531;28;20037;-65
2024/03/15 13:39:27;;;;;;;13.45;3.47;;;;;;;;;;5044203;28;20057;-66
2024/03/15 13:41:58;;;;;;;13.63;3.13;;;;;;;;;;5042368;28;20086;-65
2024/03/15 13:44:26;;;;;;;13.35;3.58;;;;;;;;;;5038424;28;20060;-66
2024/03/15 13:46:52;;;;;;;13.55;2.92;;;;;;;;;;5039772;28;20160;-65
2024/03/15 13:49:19;;;;;;;12.07;3.13;;;;;;;;;;5040816;28;20407;-66
2024/03/15 13:51:45;;;;;;;14.00;3.13;;;;;;;;;;5042196;28;20095;-65
2024/03/15 13:54:11;;;;;;;17.85;4.60;;;;;;;;;;5043172;28;20048;-66
2024/03/15 13:56:38;;;;;;;11.82;2.70;;;;;;;;;;5040781;28;20531;-65
2024/03/15 13:59:07;;;;;;;12.48;3.08;;;;;;;;;;5041692;28;20041;-65
2024/03/15 14:01:33;;;;;;;15.70;3.83;;;;;;;;;;5045896;28;20801;-66
2024/03/15 14:03:59;;;;;;;9.50;2.70;;;;;;;;;;5045670;28;20505;-66
2024/03/15 14:06:26;;;;;;;13.10;3.00;;;;;;;;;;5046371;28;20073;-65
2024/03/15 14:08:54;;;;;;;14.68;4.10;;;;;;;;;;5021981;28;20407;-71
2024/03/15 14:11:20;;;;;;;15.88;4.75;;;;;;;;;;5020911;28;21534;-76
2024/03/15 14:13:46;;;;;;;18.63;2.83;;;;;;;;;;5040920;28;20094;-65
2024/03/15 14:16:16;;;;;;;13.63;3.22;;;;;;;;;;5043063;28;20124;-65
2024/03/15 14:18:44;;;;;;;13.93;3.03;;;;;;;;;;5034631;28;20052;-65
2024/03/15 14:21:13;;;;;;;20.05;3.20;;;;;;;;;;5037089;28;20468;-65
2024/03/15 14:23:40;;;;;;;14.20;3.95;;;;;;;;;;5039845;28;20048;-65
2024/03/15 14:26:07;;;;;;;14.30;3.80;;;;;;;;;;5045632;28;20041;-65